createdAt,value
2023-02-07T00:00:15.754Z,-2.80
2023-02-07T00:02:44.139Z,-2.80
2023-02-07T00:05:11.590Z,-3.20
2023-02-07T00:07:38.709Z,-3.00
2023-02-07T00:10:07.113Z,-3.00
2023-02-07T00:12:34.040Z,-3.10
2023-02-07T00:15:01.229Z,-3.10
2023-02-07T00:17:29.547Z,-3.10
2023-02-07T00:19:56.197Z,-3.00
2023-02-07T00:22:22.837Z,-3.20
2023-02-07T00:24:49.548Z,-2.90
2023-02-07T00:27:16.183Z,-3.00
2023-02-07T00:29:42.779Z,-3.00
2023-02-07T00:32:09.525Z,-3.10
2023-02-07T00:34:36.267Z,-3.10
2023-02-07T00:37:06.555Z,-1.10
2023-02-07T00:39:38.382Z,-3.10
2023-02-07T00:42:05.219Z,-3.10
2023-02-07T00:44:32.865Z,-3.20
2023-02-07T00:46:59.758Z,-3.20
2023-02-07T00:49:26.649Z,-3.30
2023-02-07T00:51:53.221Z,-3.20
2023-02-07T00:54:19.848Z,-3.20
2023-02-07T00:56:46.438Z,-3.20
2023-02-07T00:59:13.000Z,-3.30
2023-02-07T01:01:39.654Z,-3.50
2023-02-07T01:04:06.342Z,-3.30
2023-02-07T01:06:34.279Z,-3.30
2023-02-07T01:09:02.253Z,-3.40
2023-02-07T01:11:29.617Z,-3.50
2023-02-07T01:13:58.393Z,-3.50
2023-02-07T01:16:36.172Z,-3.50
2023-02-07T01:19:06.882Z,-3.50
2023-02-07T01:21:34.071Z,-3.50
2023-02-07T01:24:00.646Z,-4.10
2023-02-07T01:26:27.617Z,-3.70
2023-02-07T01:28:55.564Z,-3.70
2023-02-07T01:31:23.128Z,-3.70
2023-02-07T01:33:57.673Z,-3.70
2023-02-07T01:36:25.188Z,-3.80
2023-02-07T01:38:53.872Z,-3.80
2023-02-07T01:41:21.865Z,-3.80
2023-02-07T01:44:06.513Z,-3.90
2023-02-07T01:46:34.683Z,-3.80
2023-02-07T01:49:09.747Z,-3.80
2023-02-07T01:51:38.313Z,-3.80
2023-02-07T01:54:07.969Z,-3.80
2023-02-07T01:56:35.510Z,-3.80
2023-02-07T01:59:05.603Z,-3.80
2023-02-07T02:01:32.626Z,-3.80
2023-02-07T02:03:59.273Z,-3.80
2023-02-07T02:06:29.201Z,-3.80
2023-02-07T02:08:58.814Z,-3.70
2023-02-07T02:11:41.320Z,-3.70
2023-02-07T02:14:23.442Z,-3.70
2023-02-07T02:17:27.325Z,-3.70
2023-02-07T02:20:29.784Z,-3.80
2023-02-07T02:23:30.117Z,-3.80
2023-02-07T02:26:26.910Z,-3.80
2023-02-07T02:29:41.772Z,-3.90
2023-02-07T02:32:46.086Z,-3.90
2023-02-07T02:35:20.082Z,-3.90
2023-02-07T02:38:02.255Z,-3.90
2023-02-07T02:40:44.668Z,-3.90
2023-02-07T02:43:44.761Z,-3.90
2023-02-07T02:46:25.101Z,-3.80
2023-02-07T02:48:52.956Z,-3.80
2023-02-07T02:51:19.658Z,-3.80
2023-02-07T02:53:57.718Z,-3.80
2023-02-07T02:56:48.496Z,-3.80
2023-02-07T02:59:25.355Z,-3.90
2023-02-07T03:02:16.109Z,-3.90
2023-02-07T03:05:12.990Z,-3.90
2023-02-07T03:07:59.048Z,-3.80
2023-02-07T03:10:37.983Z,-3.80
2023-02-07T03:13:16.791Z,-3.70
2023-02-07T03:15:53.885Z,-3.70
2023-02-07T03:18:31.255Z,-3.70
2023-02-07T03:21:10.028Z,-3.60
2023-02-07T03:23:37.959Z,-3.70
2023-02-07T03:26:07.201Z,-3.80
2023-02-07T03:28:35.669Z,-3.80
2023-02-07T03:31:04.579Z,-3.80
2023-02-07T03:33:31.838Z,-3.90
2023-02-07T03:36:10.532Z,-3.90
2023-02-07T03:38:38.259Z,-3.90
2023-02-07T03:41:34.040Z,-3.90
2023-02-07T03:44:06.944Z,-3.90
2023-02-07T03:46:37.745Z,-3.90
2023-02-07T03:49:05.465Z,-4.00
2023-02-07T03:51:32.044Z,-4.00
2023-02-07T03:53:58.634Z,-3.90
2023-02-07T03:56:25.378Z,-3.80
2023-02-07T03:58:51.985Z,-3.90
2023-02-07T04:01:18.874Z,-3.90
2023-02-07T04:03:45.447Z,-3.90
2023-02-07T04:06:12.193Z,-3.90
2023-02-07T04:08:38.741Z,-4.00
2023-02-07T04:11:06.345Z,-4.00
2023-02-07T04:13:32.921Z,-3.90
2023-02-07T04:16:00.295Z,-3.90
2023-02-07T04:18:26.968Z,-4.00
2023-02-07T04:21:04.305Z,-4.00
2023-02-07T04:23:31.072Z,-4.00
2023-02-07T04:25:57.713Z,-4.00
2023-02-07T04:28:24.520Z,-4.00
2023-02-07T04:30:51.396Z,-5.10
2023-02-07T04:33:18.809Z,-4.00
2023-02-07T04:35:45.366Z,-4.00
2023-02-07T04:38:12.220Z,-4.00
2023-02-07T04:40:39.078Z,-4.00
2023-02-07T04:43:05.635Z,-4.00
2023-02-07T04:45:32.250Z,-4.00
2023-02-07T04:47:58.837Z,-3.90
2023-02-07T04:50:25.400Z,-3.90
2023-02-07T04:52:51.932Z,-3.80
2023-02-07T04:55:18.476Z,-3.90
2023-02-07T04:57:45.014Z,-3.90
2023-02-07T05:00:12.190Z,-4.00
2023-02-07T05:02:39.272Z,-4.10
2023-02-07T05:05:06.302Z,-4.10
2023-02-07T05:07:33.053Z,-4.20
2023-02-07T05:09:59.675Z,-4.20
2023-02-07T05:12:26.217Z,-4.10
2023-02-07T05:14:52.753Z,-4.10
2023-02-07T05:17:19.319Z,-4.00
2023-02-07T05:19:46.286Z,-4.00
2023-02-07T05:22:12.860Z,-3.90
2023-02-07T05:24:39.406Z,-4.20
2023-02-07T05:27:05.986Z,-3.90
2023-02-07T05:29:32.549Z,-3.90
2023-02-07T05:32:17.771Z,-3.50
2023-02-07T05:34:44.341Z,-3.90
2023-02-07T05:37:10.921Z,-3.90
2023-02-07T05:39:37.494Z,-4.00
2023-02-07T05:42:04.072Z,-4.00
2023-02-07T05:44:30.672Z,-4.00
2023-02-07T05:46:57.243Z,-4.00
2023-02-07T05:49:23.952Z,-4.00
2023-02-07T05:51:50.503Z,-4.10
2023-02-07T05:54:17.048Z,-4.10
2023-02-07T05:56:43.634Z,-3.90
2023-02-07T05:59:10.222Z,-4.20
2023-02-07T06:01:37.447Z,-4.70
2023-02-07T06:04:04.352Z,-4.20
2023-02-07T06:06:30.906Z,-4.30
2023-02-07T06:08:57.456Z,-4.30
2023-02-07T06:11:24.034Z,-4.30
2023-02-07T06:13:50.649Z,-4.30
2023-02-07T06:16:17.266Z,-4.30
2023-02-07T06:18:43.846Z,-4.30
2023-02-07T06:21:10.394Z,-4.40
2023-02-07T06:23:36.964Z,-4.40
2023-02-07T06:26:03.597Z,-4.40
2023-02-07T06:28:30.156Z,-4.40
2023-02-07T06:30:56.790Z,-4.30
2023-02-07T06:33:23.569Z,-4.20
2023-02-07T06:35:50.130Z,-4.10
2023-02-07T06:38:18.068Z,-4.00
2023-02-07T06:40:45.037Z,-4.00
2023-02-07T06:43:13.110Z,-4.00
2023-02-07T06:45:39.942Z,-4.00
2023-02-07T06:48:07.581Z,-4.00
2023-02-07T06:50:34.208Z,-4.00
2023-02-07T06:53:02.150Z,-4.10
2023-02-07T06:55:30.427Z,-4.10
2023-02-07T06:57:56.994Z,-4.10
2023-02-07T07:00:24.711Z,-4.00
2023-02-07T07:02:52.867Z,-3.90
2023-02-07T07:05:19.720Z,-3.80
2023-02-07T07:07:46.532Z,-3.80
2023-02-07T07:10:13.474Z,-3.70
2023-02-07T07:12:40.211Z,-3.60
2023-02-07T07:15:07.547Z,-3.50
2023-02-07T07:17:34.116Z,-3.50
2023-02-07T07:20:00.662Z,-3.50
2023-02-07T07:22:27.270Z,-3.50
2023-02-07T07:24:53.980Z,-3.50
2023-02-07T07:27:20.558Z,-3.50
2023-02-07T07:29:47.218Z,-3.40
2023-02-07T07:32:22.410Z,-3.40
2023-02-07T07:34:58.765Z,-3.50
2023-02-07T07:37:25.316Z,-3.10
2023-02-07T07:39:51.904Z,-3.00
2023-02-07T07:42:18.463Z,-3.00
2023-02-07T07:44:45.021Z,-3.00
2023-02-07T07:47:12.963Z,-2.60
2023-02-07T07:49:40.265Z,-2.90
2023-02-07T07:52:06.961Z,-2.80
2023-02-07T07:54:33.545Z,-2.70
2023-02-07T07:57:00.090Z,-2.70
2023-02-07T07:59:26.670Z,-2.60
2023-02-07T08:01:53.213Z,-2.50
2023-02-07T08:04:19.829Z,-2.40
2023-02-07T08:06:46.380Z,-2.40
2023-02-07T08:09:13.005Z,-2.30
2023-02-07T08:11:39.742Z,-2.20
2023-02-07T08:14:06.320Z,-2.00
2023-02-07T08:16:33.434Z,-2.60
2023-02-07T08:18:59.977Z,-2.00
2023-02-07T08:21:26.751Z,-1.90
2023-02-07T08:23:57.007Z,-1.90
2023-02-07T08:26:23.577Z,-0.60
2023-02-07T08:28:52.279Z,-1.60
2023-02-07T08:31:19.241Z,-1.50
2023-02-07T08:33:45.910Z,-1.80
2023-02-07T08:36:12.999Z,-1.40
2023-02-07T08:38:39.609Z,-1.30
2023-02-07T08:41:06.248Z,-2.00
2023-02-07T08:43:32.814Z,-1.20
2023-02-07T08:46:00.659Z,-1.10
2023-02-07T08:48:27.501Z,-1.00
2023-02-07T08:50:54.145Z,-1.00
2023-02-07T08:53:20.710Z,-0.90
2023-02-07T08:55:47.584Z,-0.90
2023-02-07T08:58:14.213Z,-0.80
2023-02-07T09:00:41.096Z,-0.70
2023-02-07T09:03:07.854Z,-0.60
2023-02-07T09:05:34.590Z,-0.50
2023-02-07T09:08:02.047Z,-0.50
2023-02-07T09:10:28.643Z,-0.40
2023-02-07T09:12:55.182Z,-0.40
2023-02-07T09:15:21.809Z,-0.30
2023-02-07T09:17:48.368Z,-0.20
2023-02-07T09:20:14.975Z,-0.10
2023-02-07T09:23:00.366Z,0.00
2023-02-07T09:25:26.984Z,0.00
2023-02-07T09:27:53.620Z,-0.80
2023-02-07T09:30:20.200Z,0.10
2023-02-07T09:32:46.786Z,0.20
2023-02-07T09:35:13.451Z,0.20
2023-02-07T09:37:49.410Z,0.30
2023-02-07T09:40:19.081Z,0.40
2023-02-07T09:42:58.843Z,0.50
2023-02-07T09:45:31.118Z,0.60
2023-02-07T09:48:11.207Z,0.70
2023-02-07T09:50:47.353Z,0.70
2023-02-07T09:53:23.726Z,0.80
2023-02-07T09:55:57.731Z,0.90
2023-02-07T09:58:35.038Z,0.70
2023-02-07T10:01:14.198Z,0.80
2023-02-07T10:04:05.669Z,0.70
2023-02-07T10:06:34.862Z,0.70
2023-02-07T10:09:01.799Z,0.90
2023-02-07T10:11:51.080Z,1.10
2023-02-07T10:14:42.987Z,1.30
2023-02-07T10:17:35.696Z,1.50
2023-02-07T10:20:41.313Z,1.60
2023-02-07T10:23:38.589Z,1.60
2023-02-07T10:26:32.708Z,1.80
2023-02-07T10:29:20.521Z,1.80
2023-02-07T10:31:49.789Z,1.90
2023-02-07T10:34:35.308Z,2.00
2023-02-07T10:37:14.115Z,2.00
2023-02-07T10:39:48.643Z,2.00
2023-02-07T10:42:17.021Z,2.00
2023-02-07T10:44:44.078Z,2.00
2023-02-07T10:47:16.559Z,2.10
2023-02-07T10:49:46.715Z,2.00
2023-02-07T10:52:42.907Z,2.00
2023-02-07T10:55:13.623Z,2.10
2023-02-07T10:57:42.131Z,1.80
2023-02-07T11:00:30.921Z,1.60
2023-02-07T11:03:12.917Z,1.60
2023-02-07T11:05:52.204Z,1.80
2023-02-07T11:08:23.852Z,1.90
2023-02-07T11:10:52.958Z,2.00
2023-02-07T11:13:29.219Z,2.10
2023-02-07T11:16:08.418Z,2.20
2023-02-07T11:18:46.990Z,2.20
2023-02-07T11:21:33.761Z,2.20
2023-02-07T11:24:06.303Z,2.00
2023-02-07T11:26:35.493Z,1.90
2023-02-07T11:29:15.604Z,2.10
2023-02-07T11:31:44.062Z,2.30
2023-02-07T11:34:49.798Z,2.30
2023-02-07T11:37:28.917Z,2.40
2023-02-07T11:40:17.419Z,2.30
2023-02-07T11:42:44.021Z,2.50
2023-02-07T11:45:16.517Z,2.60
2023-02-07T11:47:45.952Z,2.50
2023-02-07T11:50:21.293Z,2.90
2023-02-07T11:52:56.730Z,3.00
2023-02-07T11:55:32.840Z,3.00
2023-02-07T11:58:06.629Z,2.90
2023-02-07T12:00:36.472Z,2.80
2023-02-07T12:03:09.157Z,2.80
2023-02-07T12:05:39.484Z,2.40
2023-02-07T12:08:13.117Z,2.80
2023-02-07T12:10:42.403Z,2.90
2023-02-07T12:13:27.411Z,2.90
2023-02-07T12:16:04.125Z,2.90
2023-02-07T12:18:49.897Z,2.80
2023-02-07T12:21:34.684Z,2.80
2023-02-07T12:24:10.567Z,3.00
2023-02-07T12:26:47.563Z,3.10
2023-02-07T12:29:44.248Z,3.10
2023-02-07T12:32:27.240Z,3.20
2023-02-07T12:35:05.559Z,3.20
2023-02-07T12:37:48.983Z,3.30
2023-02-07T12:40:40.365Z,3.30
2023-02-07T12:43:25.669Z,3.30
2023-02-07T12:46:03.103Z,3.20
2023-02-07T12:49:02.950Z,3.10
2023-02-07T12:52:09.542Z,3.10
2023-02-07T12:54:48.088Z,3.00
2023-02-07T12:57:31.239Z,3.20
2023-02-07T13:00:12.547Z,3.30
2023-02-07T13:03:03.333Z,3.30
2023-02-07T13:05:54.566Z,3.20
2023-02-07T13:08:35.534Z,3.00
2023-02-07T13:11:26.780Z,2.80
2023-02-07T13:14:23.460Z,2.80
2023-02-07T13:17:04.809Z,3.00
2023-02-07T13:19:59.587Z,3.10
2023-02-07T13:22:39.822Z,3.20
2023-02-07T13:25:16.182Z,3.20
2023-02-07T13:27:44.584Z,3.20
2023-02-07T13:30:16.778Z,3.20
2023-02-07T13:32:44.463Z,3.00
2023-02-07T13:35:15.324Z,3.20
2023-02-07T13:38:07.575Z,3.20
2023-02-07T13:40:55.790Z,3.20
2023-02-07T13:43:39.709Z,3.20
2023-02-07T13:46:36.734Z,3.30
2023-02-07T13:49:23.593Z,3.10
2023-02-07T13:52:01.590Z,3.10
2023-02-07T13:54:41.354Z,2.90
2023-02-07T13:57:38.407Z,3.00
2023-02-07T14:00:18.670Z,3.00
2023-02-07T14:02:56.602Z,2.90
2023-02-07T14:05:35.054Z,3.20
2023-02-07T14:08:04.389Z,3.40
2023-02-07T14:10:42.605Z,3.50
2023-02-07T14:13:29.925Z,3.40
2023-02-07T14:16:02.982Z,2.90
2023-02-07T14:18:48.817Z,3.30
2023-02-07T14:21:21.451Z,3.10
2023-02-07T14:24:09.889Z,3.10
2023-02-07T14:26:39.245Z,3.20
2023-02-07T14:29:20.980Z,3.50
2023-02-07T14:32:00.536Z,3.10
2023-02-07T14:34:51.521Z,3.00
2023-02-07T14:37:36.290Z,2.80
2023-02-07T14:40:35.460Z,3.00
2023-02-07T14:43:19.073Z,3.00
2023-02-07T14:45:51.578Z,3.00
2023-02-07T14:48:51.890Z,3.00
2023-02-07T14:51:23.677Z,2.70
2023-02-07T14:54:26.403Z,2.60
2023-02-07T14:57:17.461Z,2.40
2023-02-07T14:59:53.525Z,2.40
2023-02-07T15:02:32.217Z,2.40
2023-02-07T15:05:09.061Z,2.30
2023-02-07T15:07:35.724Z,2.30
2023-02-07T15:10:20.989Z,2.30
2023-02-07T15:12:47.739Z,2.20
2023-02-07T15:15:29.858Z,2.20
2023-02-07T15:18:00.449Z,2.10
2023-02-07T15:20:34.050Z,2.10
2023-02-07T15:23:03.200Z,2.00
2023-02-07T15:25:33.047Z,2.00
2023-02-07T15:28:26.707Z,2.00
2023-02-07T15:31:00.940Z,1.90
2023-02-07T15:33:54.947Z,1.90
2023-02-07T15:36:37.128Z,1.90
2023-02-07T15:39:06.977Z,2.00
2023-02-07T15:41:34.636Z,1.90
2023-02-07T15:44:05.706Z,1.80
2023-02-07T15:46:56.102Z,1.80
2023-02-07T15:49:37.066Z,1.70
2023-02-07T15:52:16.341Z,1.70
2023-02-07T15:54:50.200Z,1.60
2023-02-07T15:57:28.372Z,1.50
2023-02-07T15:59:57.888Z,1.50
2023-02-07T16:02:31.443Z,1.40
2023-02-07T16:04:59.463Z,1.40
2023-02-07T16:07:26.122Z,1.40
2023-02-07T16:09:53.861Z,1.30
2023-02-07T16:12:43.373Z,1.30
2023-02-07T16:15:58.516Z,1.20
2023-02-07T16:18:41.277Z,1.10
2023-02-07T16:21:14.489Z,1.10
2023-02-07T16:23:41.582Z,1.00
2023-02-07T16:26:08.542Z,0.90
2023-02-07T16:28:35.320Z,0.90
2023-02-07T16:31:02.251Z,0.90
2023-02-07T16:33:28.923Z,0.80
2023-02-07T16:35:55.478Z,0.80
2023-02-07T16:38:22.036Z,0.80
2023-02-07T16:40:49.354Z,0.80
2023-02-07T16:43:34.622Z,0.70
2023-02-07T16:46:02.165Z,0.70
2023-02-07T16:48:29.249Z,0.70
2023-02-07T16:50:57.632Z,0.40
2023-02-07T16:53:25.250Z,0.60
2023-02-07T16:55:53.728Z,0.50
2023-02-07T16:58:31.776Z,0.50
2023-02-07T17:00:58.447Z,0.40
2023-02-07T17:03:25.361Z,0.40
2023-02-07T17:05:51.934Z,0.40
2023-02-07T17:08:26.865Z,0.50
2023-02-07T17:11:02.019Z,0.40
2023-02-07T17:13:28.642Z,0.40
2023-02-07T17:15:55.236Z,0.50
2023-02-07T17:18:21.831Z,0.50
2023-02-07T17:20:48.472Z,0.30
2023-02-07T17:23:15.133Z,0.60
2023-02-07T17:25:42.493Z,0.70
2023-02-07T17:28:13.199Z,0.70
2023-02-07T17:30:41.303Z,0.80
2023-02-07T17:33:09.863Z,0.90
2023-02-07T17:35:37.605Z,1.00
2023-02-07T17:38:04.315Z,1.00
2023-02-07T17:40:38.468Z,1.10
2023-02-07T17:43:06.126Z,1.10
2023-02-07T17:45:34.968Z,1.10
2023-02-07T17:48:02.514Z,1.10
2023-02-07T17:50:32.873Z,1.10
2023-02-07T17:53:01.467Z,1.10
2023-02-07T17:55:29.969Z,1.00
2023-02-07T17:57:56.876Z,1.00
2023-02-07T18:00:26.602Z,1.00
2023-02-07T18:02:53.227Z,1.00
2023-02-07T18:05:20.683Z,0.90
2023-02-07T18:07:48.812Z,0.90
2023-02-07T18:10:22.015Z,0.90
2023-02-07T18:12:48.757Z,0.80
2023-02-07T18:15:17.682Z,0.80
2023-02-07T18:17:47.226Z,0.70
2023-02-07T18:20:22.169Z,0.70
2023-02-07T18:22:49.761Z,0.60
2023-02-07T18:25:16.459Z,0.50
2023-02-07T18:27:45.671Z,0.40
2023-02-07T18:30:12.960Z,0.40
2023-02-07T18:32:39.986Z,0.30
2023-02-07T18:35:07.141Z,0.20
2023-02-07T18:37:33.978Z,0.30
2023-02-07T18:40:00.805Z,0.20
2023-02-07T18:42:27.793Z,0.20
2023-02-07T18:44:54.403Z,0.10
2023-02-07T18:47:21.031Z,0.20
2023-02-07T18:49:47.629Z,1.50
2023-02-07T18:52:14.498Z,-0.10
2023-02-07T18:54:41.641Z,0.40
2023-02-07T18:57:08.271Z,0.40
2023-02-07T18:59:34.915Z,0.40
2023-02-07T19:02:01.699Z,0.30
2023-02-07T19:04:28.291Z,0.20
2023-02-07T19:06:55.347Z,0.10
2023-02-07T19:09:23.378Z,0.30
2023-02-07T19:11:51.613Z,0.10
2023-02-07T19:14:36.374Z,0.00
2023-02-07T19:17:02.918Z,0.00
2023-02-07T19:19:31.742Z,0.00
2023-02-07T19:21:58.977Z,0.00
2023-02-07T19:24:26.113Z,-0.10
2023-02-07T19:26:55.969Z,-0.10
2023-02-07T19:29:29.817Z,-0.10
2023-02-07T19:31:59.176Z,-0.20
2023-02-07T19:34:26.242Z,-0.20
2023-02-07T19:36:53.724Z,-0.20
2023-02-07T19:39:21.161Z,-0.30
2023-02-07T19:41:48.178Z,-0.40
2023-02-07T19:44:14.788Z,-0.40
2023-02-07T19:46:41.478Z,-0.30
2023-02-07T19:49:08.591Z,-0.30
2023-02-07T19:51:36.137Z,-0.30
2023-02-07T19:54:03.018Z,-0.30
2023-02-07T19:56:34.411Z,-0.30
2023-02-07T19:59:03.600Z,-0.20
2023-02-07T20:01:31.408Z,-0.30
2023-02-07T20:03:58.262Z,-0.30
2023-02-07T20:06:31.359Z,-0.20
2023-02-07T20:08:58.963Z,-0.40
2023-02-07T20:11:26.502Z,-0.30
2023-02-07T20:13:55.429Z,-0.30
2023-02-07T20:16:26.035Z,-0.20
2023-02-07T20:18:53.314Z,-0.20
2023-02-07T20:21:25.749Z,-0.20
2023-02-07T20:23:54.344Z,-0.20
2023-02-07T20:26:24.784Z,-0.30
2023-02-07T20:28:52.279Z,-0.20
2023-02-07T20:31:23.460Z,-0.20
2023-02-07T20:33:50.420Z,-0.30
2023-02-07T20:36:18.234Z,-0.40
2023-02-07T20:38:46.077Z,-0.30
2023-02-07T20:41:15.808Z,-0.30
2023-02-07T20:43:43.047Z,-0.20
2023-02-07T20:46:12.791Z,-0.20
2023-02-07T20:48:40.314Z,-0.30
2023-02-07T20:51:10.379Z,-0.10
2023-02-07T20:53:38.937Z,-0.20
2023-02-07T20:56:18.973Z,-0.30
2023-02-07T20:58:49.245Z,-0.30
2023-02-07T21:01:23.783Z,-0.30
2023-02-07T21:03:51.981Z,-0.40
2023-02-07T21:06:19.287Z,-0.40
2023-02-07T21:08:46.328Z,-0.50
2023-02-07T21:11:12.975Z,-0.50
2023-02-07T21:13:39.654Z,-0.50
2023-02-07T21:16:07.897Z,-0.60
2023-02-07T21:18:35.313Z,-0.60
2023-02-07T21:21:06.830Z,-0.70
2023-02-07T21:23:33.930Z,-0.70
2023-02-07T21:26:08.164Z,-0.80
2023-02-07T21:28:35.801Z,-0.90
2023-02-07T21:31:08.014Z,-0.90
2023-02-07T21:33:34.625Z,-0.90
2023-02-07T21:36:08.340Z,-1.00
2023-02-07T21:38:36.369Z,-1.00
2023-02-07T21:41:06.433Z,-1.00
2023-02-07T21:43:33.475Z,-0.90
2023-02-07T21:46:05.793Z,-0.90
2023-02-07T21:48:35.594Z,-0.90
2023-02-07T21:51:07.226Z,-0.90
2023-02-07T21:53:34.407Z,-1.00
2023-02-07T21:56:02.595Z,-1.00
2023-02-07T21:58:29.469Z,-1.10
2023-02-07T22:00:56.628Z,-1.00
2023-02-07T22:03:23.245Z,-1.00
2023-02-07T22:05:52.947Z,-1.00
2023-02-07T22:08:19.533Z,-1.00
2023-02-07T22:10:46.102Z,-1.00
2023-02-07T22:13:12.781Z,-1.00
2023-02-07T22:15:39.356Z,-1.00
2023-02-07T22:18:05.997Z,-1.30
2023-02-07T22:20:32.708Z,-1.10
2023-02-07T22:22:59.331Z,-1.10
2023-02-07T22:25:25.875Z,-1.10
2023-02-07T22:27:52.495Z,-0.90
2023-02-07T22:30:19.129Z,-1.10
2023-02-07T22:32:45.679Z,-1.20
2023-02-07T22:35:12.221Z,-1.30
2023-02-07T22:37:38.762Z,-1.40
2023-02-07T22:40:05.733Z,-1.40
2023-02-07T22:42:33.581Z,-1.60
2023-02-07T22:45:00.822Z,-1.60
2023-02-07T22:47:27.363Z,-1.60
2023-02-07T22:49:53.929Z,-1.60
2023-02-07T22:52:20.524Z,-1.60
2023-02-07T22:54:47.133Z,-1.60
2023-02-07T22:57:16.125Z,-1.60
2023-02-07T22:59:42.683Z,-1.60
2023-02-07T23:02:09.307Z,-1.60
2023-02-07T23:04:35.885Z,-1.60
2023-02-07T23:07:02.451Z,-1.60
2023-02-07T23:09:29.004Z,-1.60
2023-02-07T23:11:55.618Z,-1.60
2023-02-07T23:14:22.206Z,-1.60
2023-02-07T23:16:48.755Z,-1.60
2023-02-07T23:19:17.064Z,-1.60
2023-02-07T23:21:44.351Z,-1.70
2023-02-07T23:24:11.364Z,-1.70
2023-02-07T23:26:38.439Z,-2.00
2023-02-07T23:29:05.833Z,-2.00
2023-02-07T23:31:32.806Z,-1.80
2023-02-07T23:33:59.864Z,-2.00
2023-02-07T23:36:27.054Z,-1.90
2023-02-07T23:38:53.604Z,-1.90
2023-02-07T23:41:20.247Z,-1.90
2023-02-07T23:43:47.022Z,-2.00
2023-02-07T23:46:15.241Z,-1.80
2023-02-07T23:48:41.890Z,-1.90
2023-02-07T23:51:08.532Z,-2.00
2023-02-07T23:53:35.364Z,-1.90
2023-02-07T23:56:06.074Z,-1.90
2023-02-07T23:58:33.083Z,-2.00
